EGTK/OXF METAR and TAF weather

Enter ICAO airport designator
Station Type Date Time Source
EGTK METAR 2023/03/21 17:20 UTC NOAA

EGTK 211720Z 23012KT 9999 VCSH FEW029 BKN036 12/07 Q1005


Station Type Date Time Source
EGTK Decoded METAR 2023/03/21 17:20 UTC NOAA

Station name not available
Mar 21, 2023 - 01:20 PM EDT / 2023.03.21 1720 UTC
Wind: from the SW (230 degrees) at 14 MPH (12 KT):0
Visibility: greater than 7 mile(s):0
Sky conditions: mostly cloudy
Weather: showers in the vicinity
Temperature: 53 F (12 C)
Dew Point: 44 F (7 C)
Relative Humidity: 71%
Pressure (altimeter): 29.68 in. Hg (1005 hPa)
ob: EGTK 211720Z 23012KT 9999 VCSH FEW029 BKN036 12/07 Q1005
cycle: 17

Station Type Date Time Source
EGTK TAF UTC NOAA

Error!

Example: see airport list